• Join FlightAware (Why Join?)
  • Login
  • US Flag 
07:24PM EDT


 

Airport Tracker/Info


-or-


 

Live Flight TrackerFlight Track Log ✈ SWR441 ✈ 10-May-2013 ✈ EGLC / LCY - LSGG / GVA

Flight Track Log - Related Links

Times and Time Zones

All times are in EDT time to prevent confusion due to time zone crossing. See the SWR441 flight status page for this flight to view local times or setup timezone preferences in your user account.

Time Position Orientation Groundspeed Altitude Reporting Facility
EDT Latitude Longitude Course Direction KTS MPH feet Rate Location/Type
01:55AM 51.5060 0.0410 272° West 105 121 800  Level FlightAware
01:55AM 51.5060 0.0170 270° West 108 124 1,900 1,740 Climbing FlightAware
01:56AM 51.5080 -0.0050 278° West 141 162 2,400 1,020 Climbing FlightAware
01:56AM 51.5150 -0.0190 309° West 179 206 2,600 960 Climbing FlightAware
01:56AM 51.5280 -0.0300 332° Northwest 208 239 2,900 840 Climbing FlightAware
01:56AM 51.5460 -0.0360 348° North 215 247 3,100 -2,160 Climbing FlightAware
01:57AM 51.5638 -0.0228 348° North 218 251 1,600  Descending FlightAware UK
01:57AM 51.5640 -0.0220 348° North 244 281 3,100 5,280 Climbing FlightAware
01:57AM 51.5730 0.0030 60° Northeast 252 290 3,200 180 Climbing FlightAware
01:57AM 51.5760 0.0310 80° East 255 293 3,200  Level FlightAware
01:58AM 51.5770 0.0810 88° East 282 325 3,200 -1,620 Level FlightAware
01:58AM 51.5765 0.1281 88° East 258 297 2,000 1,380 Descending FlightAware UK
01:58AM 51.5760 0.1450 88° East 290 334 3,900 2,160 Climbing FlightAware
01:58AM 51.5756 0.1934 88° East 260 299 3,100 1,920 Descending FlightAware UK
01:59AM 51.5750 0.1980 88° East 296 341 4,700 1,740 Climbing FlightAware
01:59AM 51.5747 0.2463 88° East 262 302 3,800 1,560 Descending FlightAware UK
01:59AM 51.5740 0.2670 88° East 301 346 5,500 4,380 Climbing FlightAware
01:59AM 51.5700 0.3000 101° East 299 344 5,700 -1,980 Climbing FlightAware
02:00AM 51.5597 0.3363 101° East 264 304 4,500 900 Descending FlightAware UK
02:00AM 51.5600 0.3360 101° East 297 342 6,000 180 Climbing FlightAware
02:00AM 51.5401 0.3965 101° East 270 311 4,600 180 Descending FlightAware UK
02:00AM 51.5410 0.3940 101° East 307 353 6,100  Climbing FlightAware
02:00AM 51.5236 0.4458 101° East 276 318 4,600 240 Descending FlightAware UK
02:01AM 51.5230 0.4470 101° East 311 358 6,200 2,520 Climbing FlightAware
02:01AM 51.5010 0.5100 119° Southeast 310 357 6,100  Descending FlightAware
02:02AM 51.4810 0.5710 118° Southeast 311 358 6,200 120 Climbing FlightAware
02:02AM 51.4770 0.5830 118° Southeast 311 358 6,200  Level FlightAware
02:02AM 51.4570 0.6370 121° Southeast 306 352 6,200 300 Level FlightAware
02:02AM 51.4450 0.6520 142° Southeast 295 339 6,400 -960 Climbing FlightAware
02:03AM 51.4066 0.6852 142° Southeast 276 318 5,600 1,320 Descending FlightAware UK
02:03AM 51.4000 0.6890 142° Southeast 294 338 7,200 3,540 Climbing FlightAware
02:03AM 51.3630 0.7200 152° Southeast 294 338 7,800 -300 Climbing FlightAware
02:04AM 51.3405 0.7383 152° Southeast 282 325 7,000 2,160 Descending FlightAware UK
02:04AM 51.3340 0.7430 152° Southeast 295 339 8,700 1,980 Climbing FlightAware
02:04AM 51.3111 0.7619 152° Southeast 286 329 7,800 1,560 Descending FlightAware UK
02:04AM 51.2980 0.7730 152° Southeast 297 342 9,500 4,320 Climbing FlightAware
02:05AM 51.2780 0.7890 153° Southeast 303 349 9,900 -1,800 Climbing FlightAware
02:05AM 51.2500 0.8110 153° Southeast 322 371 8,500 -2,160 Descending FlightAware UK
02:05AM 51.2240 0.8310 154° Southeast 344 396 8,600 4,560 Climbing FlightAware UK
02:05AM 51.2270 0.8280 154° Southeast 348 400 10,100 2,640 Climbing FlightAware
02:05AM 51.1975 0.8506 154° Southeast 346 398 9,400 420 Descending FlightAware UK
02:06AM 51.1622 0.8766 155° Southeast 346 398 10,400 5,760 Climbing FlightAware UK
02:06AM 51.1650 0.8740 155° Southeast 348 400 11,800 2,280 Climbing FlightAware
02:06AM 51.1359 0.8957 155° Southeast 342 394 11,100 2,460 Descending FlightAware UK
02:07AM 51.0998 0.9139 155° Southeast 344 396 13,500 4,500 Climbing FlightAware ADS-B
02:07AM 51.0802 0.9093 188° South 326 375 13,900 -180 Climbing FlightAware ADS-B
02:07AM 51.0401 0.8812 188° South 348 400 13,400 1,920 Descending FlightAware UK
02:07AM 51.0266 0.8719 188° South 327 376 15,200 4,080 Climbing FlightAware ADS-B
02:08AM 50.9789 0.8361 205° Southwest 328 377 16,400 420 Climbing FlightAware ADS-B
02:09AM 50.9327 0.8011 205° Southwest 360 414 15,700 -240 Descending FlightAware UK
02:09AM 50.9079 0.7827 205° Southwest 362 417 16,200 5,520 Climbing FlightAware UK
02:09AM 50.8972 0.7759 205° Southwest 329 379 18,000 1,980 Climbing FlightAware ADS-B
02:09AM 50.8740 0.7576 205° Southwest 366 421 17,000 1,620 Descending FlightAware UK
02:10AM 50.8467 0.7371 205° Southwest 338 389 19,000 1,140 Climbing FlightAware ADS-B
02:10AM 50.8234 0.7194 205° Southwest 370 426 17,700 1,140 Descending FlightAware UK
02:10AM 50.8026 0.7050 205° Southwest 346 398 19,600 1,140 Climbing FlightAware ADS-B
02:10AM 50.7794 0.6866 205° Southwest 376 433 18,300 1,260 Descending FlightAware UK
02:11AM 50.7545 0.6691 205° Southwest 349 402 20,300 1,500 Climbing FlightAware ADS-B
02:11AM 50.7271 0.6477 205° Southwest 378 435 19,200 1,140 Descending FlightAware UK
02:11AM 50.7086 0.6351 205° Southwest 356 410 20,900 1,080 Climbing FlightAware ADS-B
02:12AM 50.6729 0.6075 205° Southwest 384 442 19,900 1,320 Descending FlightAware UK
02:12AM 50.6624 0.5982 205° Southwest 357 411 21,600 1,200 Climbing FlightAware ADS-B
02:12AM 50.6325 0.5636 205° Southwest 386 444 20,500 1,140 Descending FlightAware UK
02:12AM 50.6209 0.5511 205° Southwest 355 409 22,200 960 Climbing FlightAware ADS-B
02:13AM 50.5930 0.5176 205° Southwest 392 451 21,000 -1,440 Descending FlightAware UK
02:13AM 50.5690 0.4894 217° Southwest 394 453 21,300 780 Climbing FlightAware UK
02:13AM 50.5448 0.4607 217° Southwest 400 460 21,500 3,060 Climbing FlightAware UK
02:13AM 50.5248 0.4373 217° Southwest 373 429 23,000  Climbing FlightAware ADS-B
02:14AM 50.4862 0.3927 217° Southwest 404 465 21,500  Descending FlightAware UK
02:14AM 50.4750 0.3800 217° Southwest 372 428 23,000 4,500 Climbing FlightAware
02:14AM 50.4593 0.3621 216° Southwest 372 428 23,000 120 Level FlightAware ADS-B
02:15AM 50.4147 0.3146 214° Southwest 376 433 23,100 420 Climbing FlightAware ADS-B
02:15AM 50.4001 0.3068 199° South 380 437 23,300 1,320 Climbing FlightAware ADS-B
02:15AM 50.3839 0.3039 186° South 385 443 23,500 -1,620 Climbing FlightAware ADS-B
02:15AM 50.3464 0.3104 186° South 394 453 22,500 -660 Descending FlightAware UK
02:16AM 50.3037 0.3217 170° South 392 451 23,000 3,660 Climbing FlightAware UK
02:16AM 50.2950 0.3240 170° South 379 436 24,700 2,340 Climbing FlightAware
02:17AM 50.2310 0.3580 161° South 404 465 25,000 -1,200 Climbing FlightAware
02:17AM 50.1791 0.3949 161° South 414 476 23,500  Descending FlightAware UK
02:17AM 50.1480 0.4170 161° South 410 472 25,000  Climbing FlightAware
02:18AM 50.1048 0.4484 161° South 412 474 23,500  Descending FlightAware UK
02:18AM 50.0800 0.4650 161° South 418 481 25,000  Climbing FlightAware
02:18AM 50.0306 0.5003 161° South 412 474 23,500  Descending FlightAware UK
02:19AM 49.9890 0.5290 161° South 419 482 25,000  Climbing FlightAware
02:19AM 49.9562 0.5519 161° South 414 476 23,500  Descending FlightAware UK
02:19AM 49.9220 0.5750 161° South 419 482 25,000  Climbing FlightAware
02:20AM 49.8817 0.6032 161° South 412 474 23,500 -2,460 Descending FlightAware UK
02:20AM 49.8512 0.6294 151° Southeast 412 474 23,500 3,420 Level FlightAware UK
02:20AM 49.8440 0.6370 151° Southeast 426 490 25,000 8,160 Climbing FlightAware
02:20AM 49.8330 0.6500 143° Southeast 426 490 25,000 -4,140 Level FlightAware ADS-B
02:21AM 49.8044 0.6864 143° Southeast 414 476 23,500  Descending FlightAware UK
02:21AM 49.7850 0.7100 143° Southeast 429 494 25,000 2,220 Climbing FlightAware
02:21AM 49.7420 0.7635 141° Southeast 429 494 25,000 -1,740 Level FlightAware ADS-B
02:22AM 49.7114 0.8017 141° Southeast 410 472 23,800 1,440 Descending FlightAware UK
02:22AM 49.6851 0.8338 141° Southeast 421 484 25,900 1,560 Climbing FlightAware ADS-B
02:22AM 49.6495 0.8835 141° Southeast 402 463 24,900 1,260 Descending FlightAware UK
02:22AM 49.6397 0.8979 141° Southeast 418 481 26,600 1,200 Climbing FlightAware ADS-B
02:23AM 49.6160 0.9333 141° Southeast 398 458 25,400 1,200 Descending FlightAware UK
02:23AM 49.5921 0.9667 141° Southeast 415 478 27,300 1,140 Climbing FlightAware ADS-B
02:23AM 49.5662 1.0052 141° Southeast 396 456 26,100 1,020 Descending FlightAware UK
02:24AM 49.5365 1.0467 141° Southeast 412 474 28,000 2,700 Climbing FlightAware ADS-B
02:24AM 49.4917 1.1105 137° Southeast 411 473 28,500 900 Climbing FlightAware ADS-B
02:25AM 49.4478 1.1740 137° Southeast 411 473 29,000 -1,140 Climbing FlightAware ADS-B
02:25AM 49.4157 1.2204 137° Southeast 396 456 27,500  Descending FlightAware UK
02:25AM 49.4034 1.2374 137° Southeast 408 470 29,000  Climbing FlightAware ADS-B
02:26AM 49.3745 1.2792 137° Southeast 394 453 27,500  Descending FlightAware UK
02:26AM 49.3613 1.2963 137° Southeast 406 467 29,000  Climbing FlightAware ADS-B
02:26AM 49.3245 1.3498 137° Southeast 392 451 27,500  Descending FlightAware UK
02:26AM 49.3162 1.3605 137° Southeast 405 466 29,000  Climbing FlightAware ADS-B
02:27AM 49.2915 1.3963 137° Southeast 394 453 27,500  Descending FlightAware UK
02:27AM 49.2739 1.4211 137° Southeast 405 466 29,000  Climbing FlightAware ADS-B
02:27AM 49.2337 1.4783 137° Southeast 392 451 27,500  Descending FlightAware UK
02:27AM 49.2191 1.4967 137° Southeast 404 465 29,000 1,980 Climbing FlightAware ADS-B
02:28AM 49.1721 1.5627 137° Southeast 407 468 29,000 -1,680 Level FlightAware ADS-B
02:28AM 49.1426 1.6064 137° Southeast 396 456 27,500  Descending FlightAware UK
02:29AM 49.1233 1.6327 137° Southeast 406 467 29,000  Climbing FlightAware ADS-B
02:29AM 49.1010 1.6647 137° Southeast 396 456 27,500  Descending FlightAware UK
02:29AM 49.0780 1.6948 137° Southeast 406 467 29,000  Climbing FlightAware ADS-B
02:30AM 49.0429 1.7462 137° Southeast 396 456 27,500  Descending FlightAware UK
02:30AM 49.0315 1.7606 137° Southeast 406 467 29,000  Climbing FlightAware ADS-B
02:30AM 49.0095 1.7925 137° Southeast 394 453 27,500  Descending FlightAware UK
02:30AM 48.9898 1.8183 137° Southeast 406 467 29,000  Climbing FlightAware ADS-B
02:30AM 48.9679 1.8503 137° Southeast 394 453 27,500  Descending FlightAware UK
02:31AM 48.9473 1.8781 137° Southeast 407 468 29,000  Climbing FlightAware ADS-B
02:31AM 48.9261 1.9081 137° Southeast 396 456 27,500  Descending FlightAware UK
02:31AM 48.9048 1.9361 137° Southeast 408 470 29,000  Climbing FlightAware ADS-B
02:32AM 48.8757 1.9779 137° Southeast 398 458 27,500  Descending FlightAware UK
02:32AM 48.8627 1.9939 137° Southeast 406 467 29,000 2,220 Climbing FlightAware ADS-B
02:32AM 48.8209 2.0513 138° Southeast 404 465 29,000 -1,800 Level FlightAware ADS-B
02:33AM 48.7921 2.0926 138° Southeast 394 453 27,500  Descending FlightAware UK
02:33AM 48.7772 2.1122 138° Southeast 404 465 29,000  Climbing FlightAware ADS-B
02:33AM 48.7505 2.1502 138° Southeast 396 456 27,500  Descending FlightAware UK
02:33AM 48.7311 2.1747 138° Southeast 404 465 29,000 1,920 Climbing FlightAware ADS-B
02:34AM 48.6862 2.2374 137° Southeast 404 465 29,000 -1,740 Level FlightAware ADS-B
02:34AM 48.6590 2.2751 137° Southeast 396 456 27,500  Descending FlightAware UK
02:35AM 48.6279 2.3167 137° Southeast 402 463 29,000 1,620 Climbing FlightAware ADS-B
02:35AM 48.5842 2.3749 139° Southeast 403 464 29,000  Level FlightAware ADS-B
02:36AM 48.5424 2.4332 137° Southeast 404 465 29,000  Level FlightAware ADS-B
02:36AM 48.4988 2.4914 139° Southeast 403 464 29,000  Level FlightAware ADS-B
02:37AM 48.4573 2.5475 138° Southeast 401 461 29,000  Level FlightAware ADS-B
02:37AM 48.4164 2.6033 138° Southeast 400 460 29,000  Level FlightAware ADS-B
02:38AM 48.3732 2.6609 138° Southeast 401 461 29,000  Level FlightAware ADS-B
02:38AM 48.3244 2.7257 139° Southeast 401 461 29,000  Level FlightAware ADS-B
02:39AM 48.2677 2.8031 138° Southeast 398 458 29,000  Level FlightAware ADS-B
02:39AM 48.2262 2.8581 139° Southeast 397 457 29,000  Level FlightAware ADS-B
02:40AM 48.1848 2.9126 139° Southeast 394 453 29,000  Level FlightAware ADS-B
02:40AM 48.1408 2.9704 139° Southeast 392 451 29,000  Level FlightAware ADS-B
02:41AM 48.0976 3.0278 138° Southeast 393 452 29,000  Level FlightAware ADS-B
02:41AM 48.0920 3.0344 142° Southeast 392 451 29,000  Level FlightAware ADS-B
02:41AM 48.0709 3.0545 147° Southeast 390 449 29,000  Level FlightAware ADS-B
02:42AM 48.0165 3.0903 156° South 387 445 29,000  Level FlightAware ADS-B
02:43AM 47.9440 3.1360 157° South 385 443 29,000  Level FlightAware
02:43AM 47.8770 3.1780 157° South 382 440 29,000  Level FlightAware
02:44AM 47.8130 3.2170 158° South 380 437 29,000  Level FlightAware
02:45AM 47.7370 3.2650 157° South 381 438 29,000  Level FlightAware
02:45AM 47.6720 3.3060 157° South 385 443 29,000  Level FlightAware
02:46AM 47.6050 3.3650 149° Southeast 401 461 29,000  Level FlightAware
02:47AM 47.5580 3.4540 128° Southeast 406 467 29,000  Level FlightAware
02:47AM 47.5513 3.4672 127° Southeast 406 467 29,000  Level FlightAware ADS-B
02:47AM 47.5147 3.5412 126° Southeast 406 467 29,000  Level FlightAware ADS-B
02:48AM 47.4813 3.6082 126° Southeast 404 465 29,000  Level FlightAware ADS-B
02:48AM 47.4467 3.6793 126° Southeast 405 466 29,000  Level FlightAware ADS-B
02:49AM 47.4087 3.7544 127° Southeast 404 465 29,000  Level FlightAware ADS-B
02:50AM 47.3674 3.8355 127° Southeast 402 463 29,000  Level FlightAware ADS-B
02:50AM 47.3337 3.9012 127° Southeast 401 461 29,000  Level FlightAware ADS-B
02:51AM 47.2999 3.9668 127° Southeast 401 461 29,000  Level FlightAware ADS-B
02:51AM 47.2582 4.0480 127° Southeast 405 466 29,000  Level FlightAware ADS-B
02:52AM 47.2172 4.1297 126° Southeast 406 467 29,000  Level FlightAware ADS-B
02:52AM 47.1830 4.1960 127° Southeast 405 466 29,000  Level FlightAware
02:53AM 47.1390 4.2810 127° Southeast 402 463 29,000  Level FlightAware
02:54AM 47.0930 4.3710 127° Southeast 404 465 29,000  Level FlightAware
02:54AM 47.0440 4.4650 127° Southeast 406 467 29,000 -120 Level FlightAware
02:55AM 46.9910 4.5670 127° Southeast 401 461 28,900 -540 Descending FlightAware
02:56AM 46.9540 4.6390 127° Southeast 397 457 28,300 -1,140 Descending FlightAware
02:57AM 46.9010 4.7410 127° Southeast 401 461 27,300 -1,200 Descending FlightAware
02:57AM 46.8510 4.8360 128° Southeast 406 467 26,500 -1,200 Descending FlightAware
02:58AM 46.8050 4.9210 128° Southeast 408 470 25,700 -1,140 Descending FlightAware
02:59AM 46.7650 4.9980 127° Southeast 405 466 25,000 -1,200 Descending FlightAware
02:59AM 46.7070 5.1070 128° Southeast 404 465 24,000 -1,200 Descending FlightAware
03:00AM 46.6680 5.1930 123° Southeast 422 486 23,300 -1,080 Descending FlightAware
03:01AM 46.6440 5.3200 105° East 417 480 22,500 -1,500 Descending FlightAware
03:02AM 46.6040 5.4980 108° East 403 464 20,500 -1,740 Descending FlightAware
03:03AM 46.5830 5.5880 109° East 398 458 19,500 -2,280 Descending FlightAware
03:03AM 46.5560 5.7060 108° East 378 435 17,500 -2,880 Descending FlightAware
03:04AM 46.5300 5.8180 109° East 373 429 15,200 -3,120 Descending FlightAware
03:05AM 46.5080 5.9120 109° East 366 421 13,100 -2,940 Descending FlightAware
03:05AM 46.4850 6.0100 109° East 315 362 11,100 -2,640 Descending FlightAware
03:06AM 46.4670 6.0850 109° East 276 318 9,400 -2,520 Descending FlightAware
03:07AM 46.4540 6.1380 110° East 288 331 8,200 -2,100 Descending FlightAware
03:07AM 46.4420 6.1820 112° Southeast 284 327 7,500 -1,320 Descending FlightAware
03:08AM 46.4240 6.2310 118° Southeast 259 298 7,000 -1,200 Descending FlightAware
03:08AM 46.4000 6.2640 137° Southeast 227 261 6,300 -1,860 Descending FlightAware
03:08AM 46.3760 6.2810 154° Southeast 225 259 5,300 -2,400 Descending FlightAware
03:09AM 46.3460 6.2680 197° South 223 257 4,100 -2,160 Descending FlightAware
03:09AM 46.3350 6.2540 221° Southwest 212 244 3,700 -1,380 Descending FlightAware
03:10AM 46.3180 6.2270 228° Southwest 212 244 3,200 -1,200 Descending FlightAware
03:10AM 46.2990 6.1980 227° Southwest 164 189 2,600 -1,020 Descending FlightAware
03:11AM 46.2860 6.1810 222° Southwest 136 157 2,300 -660 Descending FlightAware
03:11AM 46.2740 6.1620 228° Southwest 121 139 2,000 -720 Descending FlightAware
03:12AM 46.2620 6.1440 226° Southwest 126 145 1,600 -780 Descending FlightAware
03:12AM 46.2570 6.1380 220° Southwest 126 145 1,500 -600 Descending FlightAware